createdAt,value
2023-03-30T00:00:18.565Z,100.00
2023-03-30T00:05:23.901Z,100.00
2023-03-30T00:10:29.549Z,100.00
2023-03-30T00:15:32.374Z,100.00
2023-03-30T00:20:35.234Z,100.00
2023-03-30T00:25:39.505Z,100.00
2023-03-30T00:30:42.643Z,100.00
2023-03-30T00:35:52.293Z,100.00
2023-03-30T00:40:58.202Z,100.00
2023-03-30T00:46:01.428Z,100.00
2023-03-30T00:51:09.846Z,100.00
2023-03-30T00:56:17.381Z,100.00
2023-03-30T01:01:28.487Z,100.00
2023-03-30T01:06:32.073Z,100.00
2023-03-30T01:11:37.479Z,100.00
2023-03-30T01:16:48.849Z,100.00
2023-03-30T01:22:26.519Z,100.00
2023-03-30T01:27:57.145Z,100.00
2023-03-30T01:33:28.985Z,100.00
2023-03-30T01:39:16.712Z,100.00
2023-03-30T01:44:30.735Z,100.00
2023-03-30T01:49:40.621Z,100.00
2023-03-30T01:54:50.102Z,100.00
2023-03-30T01:59:57.806Z,100.00
2023-03-30T02:05:08.306Z,100.00
2023-03-30T02:10:17.367Z,100.00
2023-03-30T02:15:21.327Z,100.00
2023-03-30T02:20:25.264Z,100.00
2023-03-30T02:25:29.636Z,100.00
2023-03-30T02:30:34.287Z,100.00
2023-03-30T02:36:03.913Z,100.00
2023-03-30T02:41:22.432Z,100.00
2023-03-30T02:46:40.043Z,100.00
2023-03-30T02:51:48.120Z,100.00
2023-03-30T02:57:07.310Z,100.00
2023-03-30T03:02:15.882Z,100.00
2023-03-30T03:07:22.611Z,100.00
2023-03-30T03:12:28.706Z,100.00
2023-03-30T03:17:34.747Z,100.00
2023-03-30T03:22:39.449Z,100.00
2023-03-30T03:27:43.938Z,100.00
2023-03-30T03:32:52.589Z,100.00
2023-03-30T03:37:55.629Z,100.00
2023-03-30T03:42:59.958Z,100.00
2023-03-30T03:48:03.000Z,100.00
2023-03-30T03:53:17.924Z,100.00
2023-03-30T03:58:22.620Z,100.00
2023-03-30T04:03:28.490Z,100.00
2023-03-30T04:08:31.506Z,100.00
2023-03-30T04:14:01.772Z,100.00
2023-03-30T04:19:37.624Z,100.00
2023-03-30T04:24:52.635Z,100.00
2023-03-30T04:30:15.244Z,100.00
2023-03-30T04:35:44.536Z,100.00
2023-03-30T04:41:14.014Z,100.00
2023-03-30T04:46:38.270Z,100.00
2023-03-30T04:51:51.549Z,100.00
2023-03-30T04:57:26.877Z,100.00
2023-03-30T05:02:44.567Z,100.00
2023-03-30T05:08:02.042Z,100.00
2023-03-30T05:13:15.479Z,100.00
2023-03-30T05:18:39.899Z,100.00
2023-03-30T05:23:59.211Z,100.00
2023-03-30T05:29:24.543Z,100.00
2023-03-30T05:34:34.755Z,100.00
2023-03-30T05:39:56.530Z,100.00
2023-03-30T05:45:22.533Z,100.00
2023-03-30T05:50:44.999Z,100.00
2023-03-30T05:55:57.887Z,100.00
2023-03-30T06:01:06.516Z,100.00
2023-03-30T06:06:16.589Z,100.00
2023-03-30T06:11:24.503Z,100.00
2023-03-30T06:16:37.941Z,100.00
2023-03-30T06:21:45.052Z,100.00
2023-03-30T06:27:09.509Z,100.00
2023-03-30T06:32:13.196Z,100.00
2023-03-30T06:37:26.571Z,100.00
2023-03-30T06:42:30.812Z,100.00
2023-03-30T06:47:44.077Z,100.00
2023-03-30T06:52:48.542Z,100.00
2023-03-30T06:57:51.572Z,100.00
2023-03-30T07:02:56.057Z,100.00
2023-03-30T07:08:09.533Z,100.00
2023-03-30T07:13:16.567Z,100.00
2023-03-30T07:18:23.089Z,100.00
2023-03-30T07:23:27.347Z,100.00
2023-03-30T07:28:30.504Z,100.00
2023-03-30T07:33:34.433Z,100.00
2023-03-30T07:38:41.488Z,100.00
2023-03-30T07:43:45.877Z,100.00
2023-03-30T07:48:49.853Z,100.00
2023-03-30T07:53:54.300Z,100.00
2023-03-30T07:59:04.420Z,100.00
2023-03-30T08:04:11.181Z,100.00
2023-03-30T08:09:17.368Z,100.00
2023-03-30T08:14:21.581Z,100.00
2023-03-30T08:19:25.832Z,100.00
2023-03-30T08:24:31.352Z,100.00
2023-03-30T08:29:34.547Z,100.00
2023-03-30T08:34:37.513Z,100.00
2023-03-30T08:39:42.616Z,100.00
2023-03-30T08:44:49.621Z,100.00
2023-03-30T08:49:59.982Z,100.00
2023-03-30T08:55:07.464Z,100.00
2023-03-30T09:00:22.052Z,100.00
2023-03-30T09:05:30.377Z,100.00
2023-03-30T09:10:40.866Z,100.00
2023-03-30T09:15:50.930Z,100.00
2023-03-30T09:20:56.262Z,100.00
2023-03-30T09:26:09.630Z,100.00
2023-03-30T09:31:19.256Z,100.00
2023-03-30T09:36:28.013Z,100.00
2023-03-30T09:41:43.460Z,100.00
2023-03-30T09:46:46.888Z,100.00
2023-03-30T09:51:56.738Z,100.00
2023-03-30T09:57:02.664Z,100.00
2023-03-30T10:02:12.772Z,99.33
2023-03-30T10:07:23.765Z,99.98
2023-03-30T10:12:30.861Z,100.00
2023-03-30T10:17:33.756Z,94.62
2023-03-30T10:22:38.903Z,91.80
2023-03-30T10:27:47.391Z,84.32
2023-03-30T10:32:50.794Z,82.93
2023-03-30T10:37:56.784Z,78.04
2023-03-30T10:43:02.189Z,74.12
2023-03-30T10:48:26.502Z,70.21
2023-03-30T10:53:39.963Z,68.65
2023-03-30T10:59:00.488Z,65.26
2023-03-30T11:04:20.251Z,69.41
2023-03-30T11:09:33.412Z,80.04
2023-03-30T11:14:47.572Z,100.00
2023-03-30T11:19:56.279Z,100.00
2023-03-30T11:25:00.628Z,100.00
2023-03-30T11:30:15.150Z,100.00
2023-03-30T11:35:28.342Z,100.00
2023-03-30T11:40:41.442Z,100.00
2023-03-30T11:45:54.118Z,100.00
2023-03-30T11:51:08.106Z,100.00
2023-03-30T11:56:19.043Z,100.00
2023-03-30T12:01:44.664Z,100.00
2023-03-30T12:06:58.428Z,100.00
2023-03-30T12:12:11.884Z,100.00
2023-03-30T12:17:30.288Z,100.00
2023-03-30T12:22:38.974Z,100.00
2023-03-30T12:27:59.666Z,100.00
2023-03-30T12:33:13.363Z,100.00
2023-03-30T12:38:19.799Z,100.00
2023-03-30T12:43:37.015Z,100.00
2023-03-30T12:48:49.893Z,100.00
2023-03-30T12:54:22.080Z,100.00
2023-03-30T13:00:08.502Z,100.00
2023-03-30T13:05:27.058Z,100.00
2023-03-30T13:10:53.097Z,100.00
2023-03-30T13:15:59.832Z,99.37
2023-03-30T13:21:26.308Z,89.42
2023-03-30T13:26:42.034Z,92.97
2023-03-30T13:32:00.347Z,73.95
2023-03-30T13:37:15.198Z,78.38
2023-03-30T13:42:31.635Z,80.45
2023-03-30T13:47:46.909Z,83.00
2023-03-30T13:52:53.156Z,82.88
2023-03-30T13:58:01.251Z,83.89
2023-03-30T14:03:39.699Z,82.82
2023-03-30T14:08:46.933Z,83.41
2023-03-30T14:13:53.172Z,85.38
2023-03-30T14:19:12.507Z,88.81
2023-03-30T14:24:19.910Z,87.12
2023-03-30T14:29:31.216Z,86.85
2023-03-30T14:34:36.013Z,90.58
2023-03-30T14:39:43.953Z,89.62
2023-03-30T14:44:48.601Z,86.53
2023-03-30T14:49:55.754Z,84.62
2023-03-30T14:55:06.097Z,83.05
2023-03-30T15:00:20.762Z,82.88
2023-03-30T15:05:37.182Z,79.29
2023-03-30T15:10:51.219Z,80.92
2023-03-30T15:15:55.742Z,84.05
2023-03-30T15:21:01.157Z,85.39
2023-03-30T15:26:08.581Z,80.69
2023-03-30T15:31:13.869Z,78.83
2023-03-30T15:36:19.976Z,77.31
2023-03-30T15:41:43.598Z,75.82
2023-03-30T15:46:47.605Z,79.78
2023-03-30T15:51:53.421Z,81.95
2023-03-30T15:57:04.011Z,79.12
2023-03-30T16:02:17.076Z,75.00
2023-03-30T16:07:23.090Z,71.28
2023-03-30T16:12:30.763Z,70.03
2023-03-30T16:17:35.094Z,67.66
2023-03-30T16:22:38.019Z,67.86
2023-03-30T16:27:43.024Z,65.41
2023-03-30T16:32:48.927Z,67.66
2023-03-30T16:37:51.782Z,66.66
2023-03-30T16:42:58.483Z,67.09
2023-03-30T16:48:01.674Z,68.02
2023-03-30T16:53:05.708Z,69.26
2023-03-30T16:58:13.808Z,72.39
2023-03-30T17:03:19.018Z,74.70
2023-03-30T17:08:26.144Z,79.38
2023-03-30T17:13:30.918Z,81.60
2023-03-30T17:18:33.890Z,84.56
2023-03-30T17:23:45.048Z,86.93
2023-03-30T17:28:52.205Z,89.61
2023-03-30T17:33:58.068Z,92.23
2023-03-30T17:39:04.791Z,93.70
2023-03-30T17:44:10.286Z,96.76
2023-03-30T17:49:17.502Z,98.80
2023-03-30T17:54:30.192Z,100.00
2023-03-30T17:59:34.430Z,100.00
2023-03-30T18:04:39.131Z,100.00
2023-03-30T18:09:44.618Z,100.00
2023-03-30T18:14:49.712Z,100.00
2023-03-30T18:19:53.919Z,100.00
2023-03-30T18:25:05.164Z,100.00
2023-03-30T18:30:21.327Z,100.00
2023-03-30T18:35:26.141Z,100.00
2023-03-30T18:40:32.792Z,100.00
2023-03-30T18:45:39.418Z,100.00
2023-03-30T18:50:44.129Z,100.00
2023-03-30T18:55:48.297Z,100.00
2023-03-30T19:00:55.763Z,100.00
2023-03-30T19:05:58.635Z,100.00
2023-03-30T19:11:01.500Z,100.00
2023-03-30T19:16:06.285Z,100.00
2023-03-30T19:21:11.054Z,100.00
2023-03-30T19:26:15.945Z,100.00
2023-03-30T19:31:20.457Z,100.00
2023-03-30T19:36:25.321Z,100.00
2023-03-30T19:41:30.531Z,100.00
2023-03-30T19:46:35.888Z,100.00
2023-03-30T19:51:40.301Z,100.00
2023-03-30T19:56:43.136Z,100.00
2023-03-30T20:01:47.385Z,100.00
2023-03-30T20:06:51.797Z,100.00
2023-03-30T20:11:55.705Z,100.00
2023-03-30T20:17:01.302Z,100.00
2023-03-30T20:22:04.245Z,100.00
2023-03-30T20:27:07.575Z,100.00
2023-03-30T20:32:11.834Z,100.00
2023-03-30T20:37:18.321Z,100.00
2023-03-30T20:42:27.122Z,100.00
2023-03-30T20:47:33.301Z,100.00
2023-03-30T20:52:36.557Z,100.00
2023-03-30T20:57:39.550Z,100.00
2023-03-30T21:02:43.739Z,100.00
2023-03-30T21:07:49.812Z,100.00
2023-03-30T21:12:52.599Z,100.00
2023-03-30T21:17:56.767Z,100.00
2023-03-30T21:22:59.726Z,100.00
2023-03-30T21:28:04.617Z,100.00
2023-03-30T21:33:08.824Z,100.00
2023-03-30T21:38:11.629Z,100.00
2023-03-30T21:43:14.435Z,100.00
2023-03-30T21:48:18.627Z,100.00
2023-03-30T21:53:21.544Z,100.00
2023-03-30T21:58:26.204Z,100.00
2023-03-30T22:03:30.597Z,100.00
2023-03-30T22:08:33.962Z,100.00
2023-03-30T22:13:36.820Z,100.00
2023-03-30T22:18:42.299Z,100.00
2023-03-30T22:23:45.620Z,100.00
2023-03-30T22:28:49.957Z,100.00
2023-03-30T22:33:54.648Z,100.00
2023-03-30T22:38:59.081Z,100.00
2023-03-30T22:44:01.944Z,100.00
2023-03-30T22:49:06.330Z,100.00
2023-03-30T22:54:09.124Z,100.00
2023-03-30T22:59:12.394Z,100.00
2023-03-30T23:04:17.006Z,100.00
2023-03-30T23:09:21.535Z,100.00
2023-03-30T23:14:26.762Z,100.00
2023-03-30T23:19:31.595Z,100.00
2023-03-30T23:24:34.512Z,100.00
2023-03-30T23:29:37.291Z,100.00
2023-03-30T23:34:42.945Z,100.00
2023-03-30T23:39:45.752Z,100.00
2023-03-30T23:44:48.640Z,100.00
2023-03-30T23:49:53.215Z,100.00
2023-03-30T23:55:01.754Z,100.00
